Time;durP1;ratioP1;P1;durP2;ratioP2;P2;SDS_P1;SDS_P2;PMS_P1;PMS_P2;Temp;Humidity;BMP_temperature;BMP_pressure;BME280_temperature;BME280_humidity;BME280_pressure;Samples;Min_cycle;Max_cycle;Signal;HPM_P1;HPM_P2
2022/12/24 00:01:34;;;;;;;25.60;4.65;;;;;;;9.19;100.00;100385.16;5068846;28;20076;-58
2022/12/24 00:04:02;;;;;;;22.00;3.90;;;;;;;9.18;100.00;100394.00;5070761;28;20045;-57
2022/12/24 00:06:30;;;;;;;24.25;4.30;;;;;;;9.19;100.00;100400.91;5072718;28;20135;-57
2022/12/24 00:08:58;;;;;;;25.65;4.13;;;;;;;9.16;100.00;100396.72;5072380;28;20067;-56
2022/12/24 00:11:26;;;;;;;21.55;4.13;;;;;;;9.15;100.00;100402.94;5072785;28;20040;-57
2022/12/24 00:13:56;;;;;;;25.90;4.10;;;;;;;9.12;100.00;100401.34;5070332;28;20040;-57
2022/12/24 00:16:24;;;;;;;27.50;4.30;;;;;;;9.14;100.00;100398.59;5069982;28;20044;-57
2022/12/24 00:18:53;;;;;;;24.10;3.65;;;;;;;9.14;100.00;100412.56;5072762;28;20103;-57
2022/12/24 00:21:21;;;;;;;26.00;4.35;;;;;;;9.13;100.00;100415.28;5072610;28;20037;-57
2022/12/24 00:23:49;;;;;;;37.13;4.97;;;;;;;9.11;100.00;100415.38;5070655;28;20110;-57
2022/12/24 00:26:17;;;;;;;20.50;3.75;;;;;;;9.11;100.00;100411.94;5068505;28;20068;-57
2022/12/24 00:28:45;;;;;;;29.80;4.57;;;;;;;9.13;100.00;100412.66;5072259;28;20071;-57
2022/12/24 00:31:18;;;;;;;25.92;3.97;;;;;;;9.13;100.00;100420.53;5072254;28;20044;-57
2022/12/24 00:33:47;;;;;;;26.92;4.25;;;;;;;9.19;100.00;100417.53;5070442;28;20098;-57
2022/12/24 00:36:16;;;;;;;23.02;4.07;;;;;;;9.13;100.00;100418.78;5069895;28;20072;-57
2022/12/24 00:38:44;;;;;;;23.63;3.58;;;;;;;9.12;100.00;100422.31;5071173;28;20499;-57
2022/12/24 00:41:24;;;;;;;24.15;3.80;;;;;;;9.10;100.00;100423.38;5072078;28;20403;-56
2022/12/24 00:43:57;;;;;;;24.08;3.47;;;;;;;9.08;100.00;100430.47;5069851;28;20041;-57
2022/12/24 00:46:29;;;;;;;24.27;4.05;;;;;;;9.08;100.00;100430.47;5071246;28;20124;-57
2022/12/24 00:48:57;;;;;;;25.10;4.28;;;;;;;9.05;100.00;100430.69;5072453;28;20040;-57
2022/12/24 00:51:25;;;;;;;28.00;4.15;;;;;;;9.05;100.00;100441.19;5072210;28;20053;-57
2022/12/24 00:53:54;;;;;;;22.85;4.43;;;;;;;9.04;100.00;100444.75;5069681;28;20048;-57
2022/12/24 00:56:22;;;;;;;21.98;4.05;;;;;;;8.99;100.00;100436.34;5070410;28;20053;-57
2022/12/24 00:58:51;;;;;;;22.85;3.88;;;;;;;9.02;100.00;100457.97;5072897;28;20080;-57
2022/12/24 01:01:20;;;;;;;34.47;4.30;;;;;;;9.03;100.00;100461.44;5075838;28;20398;-58
2022/12/24 01:03:50;;;;;;;29.35;4.25;;;;;;;9.01;100.00;100466.75;5075282;28;20048;-59
2022/12/24 01:06:20;;;;;;;27.92;4.60;;;;;;;9.00;100.00;100472.09;5073360;28;20051;-56
2022/12/24 01:08:51;;;;;;;24.55;4.70;;;;;;;9.02;100.00;100472.88;5075006;28;20040;-53
2022/12/24 01:11:20;;;;;;;28.95;4.47;;;;;;;9.01;100.00;100479.03;5075492;28;20406;-51
2022/12/24 01:13:48;;;;;;;28.75;4.15;;;;;;;9.02;100.00;100484.19;5076501;28;20045;-51
2022/12/24 01:16:19;;;;;;;24.35;4.05;;;;;;;9.00;100.00;100487.84;5075653;28;20090;-51
2022/12/24 01:18:47;;;;;;;30.65;4.60;;;;;;;8.98;100.00;100490.56;5076029;28;20431;-52
2022/12/24 01:21:17;;;;;;;30.88;4.88;;;;;;;8.96;100.00;100492.47;5075688;28;20036;-53
2022/12/24 01:23:45;;;;;;;27.90;3.95;;;;;;;8.89;100.00;100499.88;5074537;28;20061;-50
2022/12/24 01:26:13;;;;;;;28.30;4.25;;;;;;;8.88;100.00;100497.34;5075587;28;20048;-52
2022/12/24 01:28:42;;;;;;;25.83;4.50;;;;;;;8.93;100.00;100504.00;5072419;28;20083;-52
2022/12/24 01:31:12;;;;;;;31.25;4.95;;;;;;;8.89;100.00;100502.50;5072518;28;20133;-51
2022/12/24 01:33:40;;;;;;;30.17;5.40;;;;;;;8.88;100.00;100506.06;5075906;28;20447;-52
2022/12/24 01:36:09;;;;;;;31.98;4.75;;;;;;;8.94;100.00;100517.94;5075434;28;20455;-52
2022/12/24 01:38:39;;;;;;;36.97;5.35;;;;;;;8.92;100.00;100515.41;5075037;28;20392;-51
2022/12/24 01:43:57;;;;;;;25.45;4.30;;;;;;;8.88;100.00;100511.31;5074330;28;20098;-52
2022/12/24 01:46:28;;;;;;;33.60;4.95;;;;;;;8.86;100.00;100523.69;5075529;28;20066;-52
2022/12/24 01:48:59;;;;;;;37.63;4.60;;;;;;;8.85;100.00;100514.13;5075381;28;20041;-53
2022/12/24 01:51:34;;;;;;;35.58;5.22;;;;;;;8.79;100.00;100525.84;5075379;28;20037;-51
2022/12/24 01:54:07;;;;;;;30.65;4.18;;;;;;;8.82;100.00;100530.06;5075172;28;20657;-52
2022/12/24 01:56:39;;;;;;;39.33;5.47;;;;;;;8.77;100.00;100529.50;5075166;28;20049;-51
2022/12/24 01:59:12;;;;;;;30.33;4.50;;;;;;;8.75;100.00;100536.59;5075123;28;20067;-52
2022/12/24 02:01:44;;;;;;;32.53;5.10;;;;;;;8.71;100.00;100535.13;5073708;28;20056;-51
2022/12/24 02:04:17;;;;;;;;;;;;;;;8.73;100.00;100546.38;5074474;28;20053;-58
2022/12/24 02:06:45;;;;;;;26.98;4.75;;;;;;;8.65;100.00;100551.25;5072271;28;20360;-58
2022/12/24 02:09:15;;;;;;;29.52;4.53;;;;;;;8.68;100.00;100556.28;5072223;28;20503;-58
2022/12/24 02:11:43;;;;;;;29.10;4.05;;;;;;;8.65;100.00;100559.09;5074725;28;20501;-58
2022/12/24 02:14:16;;;;;;;25.70;3.85;;;;;;;8.65;100.00;100561.72;5074802;28;20045;-58
2022/12/24 02:16:54;;;;;;;33.15;4.90;;;;;;;8.69;100.00;100573.72;5074772;28;20052;-58
2022/12/24 02:20:03;;;;;;;29.75;4.13;;;;;;;8.66;100.00;100576.50;5074230;28;20060;-58
2022/12/24 02:22:46;;;;;;;28.50;4.50;;;;;;;8.59;100.00;100569.03;5071572;28;20098;-58
2022/12/24 02:25:33;;;;;;;31.80;4.68;;;;;;;8.52;100.00;100582.59;5074675;28;20055;-53
2022/12/24 02:28:12;;;;;;;26.98;4.80;;;;;;;8.48;100.00;100587.19;5073866;28;20407;-51
2022/12/24 02:30:45;;;;;;;23.55;3.97;;;;;;;8.48;100.00;100583.72;5074519;28;20083;-58
2022/12/24 02:33:16;;;;;;;;;;;;;;;8.49;100.00;100586.22;5073817;28;20059;-53
2022/12/24 02:35:50;;;;;;;32.13;4.18;;;;;;;8.40;100.00;100592.03;5074548;28;20026;-52
2022/12/24 02:38:25;;;;;;;25.02;4.90;;;;;;;8.36;100.00;100601.00;5073602;28;20067;-53
2022/12/24 02:40:57;;;;;;;27.98;5.25;;;;;;;8.32;100.00;100596.84;5070737;28;20091;-58
2022/12/24 02:43:29;;;;;;;22.15;3.95;;;;;;;8.29;100.00;100593.50;5073321;28;20049;-58
2022/12/24 02:46:02;;;;;;;26.67;4.35;;;;;;;8.21;100.00;100600.97;5074305;28;20049;-58
2022/12/24 02:48:32;;;;;;;24.52;4.32;;;;;;;8.17;100.00;100604.69;5073813;28;20048;-58
2022/12/24 02:51:03;;;;;;;32.95;4.10;;;;;;;8.16;100.00;100604.78;5071658;28;20102;-58
2022/12/24 02:53:32;;;;;;;24.83;5.43;;;;;;;8.14;100.00;100597.03;5073560;28;20048;-58
2022/12/24 02:56:19;;;;;;;22.38;4.38;;;;;;;8.11;100.00;100603.28;5074281;28;20045;-58
2022/12/24 02:59:08;;;;;;;23.50;4.32;;;;;;;8.06;100.00;100610.56;5073438;28;20395;-58
2022/12/24 03:01:50;;;;;;;32.40;4.35;;;;;;;8.07;100.00;100611.41;5070396;28;20048;-58
2022/12/24 03:04:39;;;;;;;28.20;4.07;;;;;;;8.02;100.00;100605.59;5073038;28;20080;-52
2022/12/24 03:07:15;;;;;;;25.27;4.10;;;;;;;7.98;100.00;100607.56;5073720;28;20037;-51
2022/12/24 03:09:56;;;;;;;23.58;4.07;;;;;;;7.97;100.00;100611.09;5073371;28;20044;-52
2022/12/24 03:12:32;;;;;;;27.00;4.15;;;;;;;7.93;100.00;100602.59;5073573;28;20041;-50
2022/12/24 03:15:02;;;;;;;23.85;4.60;;;;;;;7.93;100.00;100610.44;5073038;28;20120;-52
2022/12/24 03:17:36;;;;;;;26.40;4.25;;;;;;;7.87;100.00;100615.19;5073332;28;20135;-58
2022/12/24 03:20:06;;;;;;;22.05;3.80;;;;;;;7.89;100.00;100616.75;5070744;28;20057;-58
2022/12/24 03:22:35;;;;;;;27.77;3.90;;;;;;;7.84;100.00;100610.97;5071645;28;20507;-58
2022/12/24 03:25:04;;;;;;;26.27;3.80;;;;;;;7.87;100.00;100612.56;5073470;28;20098;-52
2022/12/24 03:27:34;;;;;;;24.00;4.43;;;;;;;7.89;100.00;100614.16;5069790;28;20049;-53
2022/12/24 03:30:04;;;;;;;27.23;4.50;;;;;;;7.83;100.00;100616.28;5070537;28;20059;-58
2022/12/24 03:32:34;;;;;;;25.60;4.78;;;;;;;7.78;100.00;100613.91;5073530;28;20052;-58
2022/12/24 03:35:03;;;;;;;27.13;4.18;;;;;;;7.76;100.00;100624.50;5073311;28;20087;-57
2022/12/24 03:37:31;;;;;;;30.08;4.45;;;;;;;7.78;100.00;100624.41;5073571;28;20126;-58
2022/12/24 03:39:59;;;;;;;31.20;4.57;;;;;;;7.79;100.00;100623.47;5073334;28;20502;-55
2022/12/24 03:42:27;;;;;;;26.92;4.32;;;;;;;7.73;100.00;100626.44;5073356;28;20052;-58
2022/12/24 03:44:55;;;;;;;25.88;4.13;;;;;;;7.77;100.00;100628.81;5071948;28;20048;-56
2022/12/24 03:47:23;;;;;;;28.88;5.07;;;;;;;7.75;100.00;100628.03;5069779;28;20049;-56
2022/12/24 03:49:53;;;;;;;24.08;5.57;;;;;;;7.76;100.00;100629.72;5071532;28;20044;-56
2022/12/24 03:52:21;;;;;;;28.25;4.65;;;;;;;7.75;100.00;100629.81;5073204;28;20344;-56
2022/12/24 03:54:49;;;;;;;30.05;4.72;;;;;;;7.75;100.00;100629.81;5072282;28;20550;-56
2022/12/24 03:57:17;;;;;;;25.63;4.35;;;;;;;7.78;100.00;100621.78;5069591;28;20445;-56
2022/12/24 03:59:45;;;;;;;32.50;5.13;;;;;;;7.79;100.00;100618.25;5070810;28;20052;-56
2022/12/24 04:02:13;;;;;;;28.88;4.22;;;;;;;7.82;100.00;100628.53;5072820;28;20048;-56
2022/12/24 04:04:42;;;;;;;37.47;6.90;;;;;;;7.87;100.00;100629.13;5072955;28;20052;-56
2022/12/24 04:07:11;;;;;;;35.78;5.22;;;;;;;7.89;100.00;100632.47;5072835;28;20475;-56
2022/12/24 04:09:39;;;;;;;27.58;5.50;;;;;;;7.95;100.00;100633.91;5072722;28;20056;-56
2022/12/24 04:12:08;;;;;;;28.75;4.72;;;;;;;7.95;100.00;100640.00;5072513;28;20048;-56
2022/12/24 04:14:36;;;;;;;26.45;5.20;;;;;;;7.99;100.00;100634.56;5071047;28;20037;-56
2022/12/24 04:17:04;;;;;;;36.35;5.65;;;;;;;8.00;100.00;100639.72;5068344;28;20055;-56
2022/12/24 04:19:33;;;;;;;30.52;5.70;;;;;;;8.03;100.00;100641.31;5070537;28;20045;-56
2022/12/24 04:22:01;;;;;;;33.50;5.18;;;;;;;8.05;100.00;100636.84;5071620;28;20075;-56
2022/12/24 04:24:30;;;;;;;26.23;5.10;;;;;;;8.08;100.00;100634.88;5072698;28;20170;-56
2022/12/24 04:26:58;;;;;;;37.05;6.47;;;;;;;8.12;100.00;100641.63;5071014;28;20143;-56
2022/12/24 04:29:26;;;;;;;31.08;5.72;;;;;;;8.13;100.00;100642.47;5069988;28;20499;-56
2022/12/24 04:31:54;;;;;;;31.90;6.20;;;;;;;8.14;100.00;100644.19;5071866;28;20098;-58
2022/12/24 04:34:23;;;;;;;30.75;6.47;;;;;;;8.16;100.00;100644.91;5072345;28;20503;-55
2022/12/24 04:36:51;;;;;;;40.55;6.13;;;;;;;8.20;100.00;100643.81;5072549;28;20495;-57
2022/12/24 04:39:19;;;;;;;26.50;5.88;;;;;;;8.23;100.00;100651.47;5071496;28;20052;-57
2022/12/24 04:41:49;;;;;;;36.28;6.45;;;;;;;8.25;100.00;100651.41;5069319;28;20055;-57
2022/12/24 04:44:17;;;;;;;35.30;5.90;;;;;;;8.26;100.00;100653.94;5071037;28;20044;-57
2022/12/24 04:46:45;;;;;;;30.67;6.28;;;;;;;8.34;100.00;100655.25;5072491;28;20518;-55
2022/12/24 04:49:13;;;;;;;30.35;5.63;;;;;;;8.41;100.00;100651.34;5072385;28;20044;-57
2022/12/24 04:51:41;;;;;;;33.22;6.68;;;;;;;8.40;100.00;100650.50;5072393;28;20074;-57
2022/12/24 04:54:10;;;;;;;30.33;5.72;;;;;;;8.40;100.00;100654.91;5072422;28;20403;-56
2022/12/24 04:56:38;;;;;;;27.40;5.32;;;;;;;8.44;100.00;100656.41;5072468;28;20056;-56
2022/12/24 04:59:07;;;;;;;31.58;5.85;;;;;;;8.48;100.00;100657.09;5072402;28;20049;-50
2022/12/24 05:01:35;;;;;;;34.00;6.88;;;;;;;8.59;100.00;100660.78;5072165;28;20041;-51
2022/12/24 05:04:05;;;;;;;31.17;5.40;;;;;;;8.53;100.00;100657.66;5072201;28;20150;-51
2022/12/24 05:06:34;;;;;;;32.40;6.10;;;;;;;8.56;100.00;100665.34;5072143;28;20044;-49
2022/12/24 05:09:02;;;;;;;31.30;6.22;;;;;;;8.58;100.00;100659.06;5072149;28;20131;-49
2022/12/24 05:11:31;;;;;;;40.15;5.90;;;;;;;8.59;100.00;100655.53;5071799;28;20051;-52
2022/12/24 05:13:59;;;;;;;33.65;5.78;;;;;;;8.61;100.00;100664.13;5071975;28;20049;-53
2022/12/24 05:16:29;;;;;;;32.33;6.13;;;;;;;8.62;100.00;100663.19;5071942;28;20349;-52
2022/12/24 05:18:57;;;;;;;30.38;6.03;;;;;;;8.60;100.00;100651.97;5071926;28;20052;-51
2022/12/24 05:21:26;;;;;;;40.03;6.75;;;;;;;8.64;100.00;100657.88;5071680;28;20059;-51
2022/12/24 05:26:44;;;;;;;27.52;5.53;;;;;;;8.66;100.00;100658.63;5067861;28;20045;-51
2022/12/24 05:29:13;;;;;;;36.13;5.45;;;;;;;8.67;100.00;100657.69;5071453;28;20520;-55
2022/12/24 05:31:53;;;;;;;30.80;5.00;;;;;;;8.69;100.00;100666.31;5071753;28;20514;-56
2022/12/24 05:34:41;;;;;;;38.70;5.82;;;;;;;8.68;100.00;100669.03;5070434;28;20580;-53
2022/12/24 05:37:28;;;;;;;30.52;4.72;;;;;;;8.74;100.00;100671.25;5070033;28;20127;-54
2022/12/24 05:39:57;;;;;;;37.10;5.88;;;;;;;8.71;100.00;100674.06;5070467;28;20052;-56
2022/12/24 05:42:25;;;;;;;29.08;6.10;;;;;;;8.72;100.00;100678.38;5071733;28;20075;-56
2022/12/24 05:44:53;;;;;;;37.05;5.90;;;;;;;8.71;100.00;100680.19;5072515;28;20040;-56
2022/12/24 05:47:22;;;;;;;27.77;5.22;;;;;;;8.75;100.00;100688.69;5073746;28;20056;-56
2022/12/24 05:49:50;;;;;;;33.53;5.50;;;;;;;8.75;100.00;100686.06;5072021;28;20558;-57
2022/12/24 05:52:19;;;;;;;36.85;6.53;;;;;;;8.76;100.00;100687.75;5073636;28;20393;-57
2022/12/24 05:54:47;;;;;;;41.92;6.90;;;;;;;8.76;100.00;100682.50;5075679;28;20076;-57
2022/12/24 05:57:16;;;;;;;30.80;5.88;;;;;;;8.84;100.00;100682.06;5075176;28;20139;-57
2022/12/24 05:59:44;;;;;;;39.35;5.72;;;;;;;8.82;100.00;100690.03;5075060;28;20116;-58
2022/12/24 06:02:12;;;;;;;29.60;6.57;;;;;;;8.84;100.00;100684.69;5074911;28;20046;-57
2022/12/24 06:04:42;;;;;;;34.78;6.10;;;;;;;8.85;100.00;100689.84;5074939;28;20373;-57
2022/12/24 06:07:10;;;;;;;30.95;6.45;;;;;;;8.87;100.00;100693.19;5075434;28;20048;-57
2022/12/24 06:09:39;;;;;;;35.97;5.57;;;;;;;8.84;100.00;100697.81;5075095;28;20091;-53
2022/12/24 06:12:07;;;;;;;27.77;5.40;;;;;;;8.88;100.00;100700.13;5071761;28;20052;-53
2022/12/24 06:14:35;;;;;;;33.00;6.47;;;;;;;8.90;100.00;100710.53;5071799;28;20045;-53
2022/12/24 06:17:03;;;;;;;33.75;6.40;;;;;;;8.86;100.00;100704.63;5073535;28;20044;-52
2022/12/24 06:19:31;;;;;;;34.22;6.32;;;;;;;8.91;100.00;100706.97;5069453;28;20147;-52
2022/12/24 06:22:01;;;;;;;33.33;6.93;;;;;;;8.89;100.00;100712.31;5072071;28;20128;-53
2022/12/24 06:24:29;;;;;;;27.15;5.18;;;;;;;8.93;100.00;100712.94;5074539;28;20044;-50
2022/12/24 06:26:57;;;;;;;33.13;7.00;;;;;;;8.94;100.00;100722.50;5074531;28;20383;-53
2022/12/24 06:29:26;;;;;;;31.00;6.07;;;;;;;8.95;100.00;100714.56;5074399;28;20051;-53
2022/12/24 06:31:54;;;;;;;27.15;6.78;;;;;;;9.00;100.00;100713.44;5074546;28;20041;-53
2022/12/24 06:34:22;;;;;;;35.88;6.90;;;;;;;9.00;100.00;100721.28;5074385;28;20380;-50
2022/12/24 06:36:50;;;;;;;31.27;5.90;;;;;;;9.00;100.00;100731.78;5074299;28;20055;-52
2022/12/24 06:39:20;;;;;;;34.00;5.85;;;;;;;9.00;100.00;100732.66;5074140;28;20537;-53
2022/12/24 06:41:48;;;;;;;36.95;6.28;;;;;;;9.03;100.00;100736.88;5070485;28;20446;-53
2022/12/24 06:44:16;;;;;;;35.00;6.55;;;;;;;9.02;100.00;100741.25;5071203;28;20045;-52
2022/12/24 06:46:44;;;;;;;44.38;8.25;;;;;;;9.02;100.00;100746.50;5074242;28;20094;-50
2022/12/24 06:49:12;;;;;;;29.30;6.07;;;;;;;9.02;100.00;100750.91;5074102;28;20499;-52
2022/12/24 06:51:41;;;;;;;34.35;6.70;;;;;;;9.06;100.00;100752.41;5074323;28;20051;-53
2022/12/24 06:54:09;;;;;;;35.10;8.15;;;;;;;9.07;100.00;100749.69;5074134;28;20094;-53
2022/12/24 06:56:39;;;;;;;33.50;6.80;;;;;;;9.05;100.00;100754.22;5074111;28;20093;-52
2022/12/24 06:59:07;;;;;;;33.78;7.28;;;;;;;9.08;100.00;100748.78;5072550;28;20052;-54
2022/12/24 07:01:35;;;;;;;29.83;6.65;;;;;;;9.09;100.00;100746.97;5069419;28;20052;-53
2022/12/24 07:04:04;;;;;;;30.60;6.78;;;;;;;9.08;100.00;100737.41;5070262;28;20052;-49
2022/12/24 07:06:32;;;;;;;30.73;6.05;;;;;;;9.08;100.00;100746.16;5072635;28;20525;-52
2022/12/24 07:09:00;;;;;;;28.67;5.70;;;;;;;9.11;100.00;100737.25;5073214;28;20076;-50
2022/12/24 07:11:29;;;;;;;34.80;6.60;;;;;;;9.12;100.00;100738.91;5073692;28;20502;-52
2022/12/24 07:13:58;;;;;;;30.52;6.75;;;;;;;9.13;100.00;100751.09;5073530;28;20082;-50
2022/12/24 07:16:26;;;;;;;33.80;6.30;;;;;;;9.11;100.00;100764.31;5073387;28;20041;-51
2022/12/24 07:18:54;;;;;;;30.63;6.70;;;;;;;9.12;100.00;100767.78;5073453;28;20072;-53
2022/12/24 07:21:23;;;;;;;30.15;6.03;;;;;;;9.12;100.00;100770.41;5073034;28;20056;-50
2022/12/24 07:23:51;;;;;;;36.38;6.60;;;;;;;9.13;100.00;100777.34;5071259;28;20053;-51
2022/12/24 07:26:19;;;;;;;28.83;5.55;;;;;;;9.15;100.00;100780.72;5069371;28;20091;-53
2022/12/24 07:28:47;;;;;;;34.85;6.50;;;;;;;9.12;100.00;100779.13;5072152;28;20131;-51
2022/12/24 07:31:17;;;;;;;30.98;5.80;;;;;;;9.10;100.00;100785.41;5073278;28;20041;-53
2022/12/24 07:33:45;;;;;;;31.00;7.82;;;;;;;9.14;100.00;100792.16;5069819;28;20060;-54
2022/12/24 07:36:18;;;;;;;40.55;6.78;;;;;;;9.12;100.00;100797.50;5070435;28;20055;-53
2022/12/24 07:38:46;;;;;;;35.92;7.13;;;;;;;9.15;100.00;100809.59;5073117;28;20419;-53
2022/12/24 07:41:15;;;;;;;32.83;6.75;;;;;;;9.15;100.00;100806.97;5073175;28;20534;-53
2022/12/24 07:43:43;;;;;;;32.83;6.20;;;;;;;9.15;100.00;100809.59;5073217;28;20067;-53
2022/12/24 07:46:11;;;;;;;30.08;6.07;;;;;;;9.16;100.00;100818.31;5072949;28;20499;-53
2022/12/24 07:48:41;;;;;;;35.30;8.77;;;;;;;9.16;100.00;100820.94;5072090;28;20044;-52
2022/12/24 07:51:09;;;;;;;26.92;5.65;;;;;;;9.15;100.00;100825.34;5069384;28;20513;-58
2022/12/24 07:53:37;;;;;;;34.20;8.02;;;;;;;9.14;100.00;100829.72;5071610;28;20053;-58
2022/12/24 07:56:06;;;;;;;26.85;5.80;;;;;;;9.09;100.00;100833.56;5072888;28;20052;-58
2022/12/24 07:58:40;;;;;;;37.72;7.32;;;;;;;9.17;100.00;100838.38;5072946;28;20399;-58
2022/12/24 08:01:09;;;;;;;26.20;5.72;;;;;;;9.16;100.00;100845.38;5072830;28;20512;-58
2022/12/24 08:03:37;;;;;;;33.92;7.15;;;;;;;9.13;100.00;100859.53;5073095;28;20070;-58
2022/12/24 08:06:07;;;;;;;29.08;4.95;;;;;;;9.14;100.00;100866.47;5072911;28;20484;-57
2022/12/24 08:08:36;;;;;;;28.33;5.72;;;;;;;9.12;100.00;100870.97;5072520;28;20056;-58
2022/12/24 08:11:06;;;;;;;23.38;5.65;;;;;;;9.14;100.00;100869.09;5070754;28;20155;-58
2022/12/24 08:13:35;;;;;;;30.52;5.63;;;;;;;9.19;100.00;100873.22;5070834;28;20040;-58
2022/12/24 08:16:04;;;;;;;25.95;5.00;;;;;;;9.19;100.00;100873.22;5072918;28;20521;-58
2022/12/24 08:18:32;;;;;;;26.90;4.50;;;;;;;9.20;100.00;100872.28;5071334;28;20080;-58
2022/12/24 08:21:00;;;;;;;34.53;6.05;;;;;;;9.22;100.00;100878.31;5069996;28;20060;-58
2022/12/24 08:23:32;;;;;;;33.53;5.60;;;;;;;9.21;100.00;100887.09;5071620;28;20044;-58
2022/12/24 08:26:00;;;;;;;31.88;6.22;;;;;;;9.26;100.00;100901.63;5072610;28;20051;-58
2022/12/24 08:28:28;;;;;;;28.55;5.88;;;;;;;9.21;100.00;100897.59;5072608;28;20041;-58
2022/12/24 08:30:56;;;;;;;28.17;5.47;;;;;;;9.24;100.00;100892.16;5071241;28;20041;-58
2022/12/24 08:33:25;;;;;;;32.17;6.85;;;;;;;9.22;100.00;100892.25;5069453;28;20055;-58
2022/12/24 08:35:55;;;;;;;28.80;6.32;;;;;;;9.23;100.00;100904.44;5071890;28;20127;-58
2022/12/24 08:38:23;;;;;;;33.30;6.03;;;;;;;9.22;100.00;100904.53;5071860;28;20064;-58
2022/12/24 08:40:54;;;;;;;23.92;5.97;;;;;;;9.24;100.00;100905.28;5069881;28;20533;-58
2022/12/24 08:43:24;;;;;;;29.00;6.40;;;;;;;9.24;100.00;100906.16;5071031;28;20438;-58
2022/12/24 08:45:53;;;;;;;30.40;6.13;;;;;;;9.25;100.00;100909.59;5071994;28;20048;-58
2022/12/24 08:48:21;;;;;;;27.75;6.68;;;;;;;9.29;100.00;100914.56;5068934;28;20050;-58
2022/12/24 08:50:49;;;;;;;32.88;6.50;;;;;;;9.30;100.00;100924.16;5069238;28;20048;-58
2022/12/24 08:53:17;;;;;;;28.25;5.60;;;;;;;9.27;100.00;100916.47;5072290;28;20052;-58
2022/12/24 08:55:47;;;;;;;28.02;6.47;;;;;;;9.30;100.00;100923.31;5071498;28;20495;-58
2022/12/24 08:58:24;;;;;;;30.00;6.38;;;;;;;9.32;100.00;100933.72;5069932;28;20036;-58
2022/12/24 09:00:52;;;;;;;37.75;7.53;;;;;;;9.34;100.00;100932.69;5071622;28;20053;-58
2022/12/24 09:03:20;;;;;;;26.55;5.93;;;;;;;9.34;100.00;100940.56;5072012;28;20479;-59
2022/12/24 09:05:55;;;;;;;30.88;5.53;;;;;;;9.36;100.00;100943.09;5072290;28;20044;-58
2022/12/24 09:08:23;;;;;;;35.60;5.90;;;;;;;9.35;100.00;100939.63;5072304;28;20110;-58
2022/12/24 09:10:51;;;;;;;29.63;5.80;;;;;;;9.37;100.00;100939.56;5072323;28;20049;-58
2022/12/24 09:13:19;;;;;;;29.08;5.28;;;;;;;9.42;100.00;100947.97;5072319;28;20055;-58
2022/12/24 09:15:54;;;;;;;30.02;5.72;;;;;;;9.45;100.00;100950.44;5072328;28;20041;-58
2022/12/24 09:18:22;;;;;;;33.60;6.03;;;;;;;9.45;100.00;100948.66;5072099;28;20051;-58
2022/12/24 09:20:50;;;;;;;32.63;7.13;;;;;;;9.49;100.00;100949.31;5073374;28;20555;-59
2022/12/24 09:23:24;;;;;;;32.95;6.47;;;;;;;9.55;100.00;100958.63;5073275;28;20049;-58
2022/12/24 09:25:52;;;;;;;33.33;7.72;;;;;;;9.61;100.00;100960.88;5075073;28;20423;-58
2022/12/24 09:28:20;;;;;;;35.15;7.57;;;;;;;9.63;100.00;100964.25;5075735;28;20504;-58
2022/12/24 09:30:57;;;;;;;26.08;6.80;;;;;;;9.70;100.00;100972.63;5072970;28;20061;-59
2022/12/24 09:33:26;;;;;;;33.38;6.70;;;;;;;9.71;100.00;100983.03;5072766;28;20127;-58
2022/12/24 09:35:54;;;;;;;32.30;6.72;;;;;;;9.70;100.00;100975.25;5075591;28;20040;-59
2022/12/24 09:38:23;;;;;;;26.80;5.45;;;;;;;9.76;100.00;100988.00;5075703;28;20060;-59
2022/12/24 09:40:53;;;;;;;35.10;7.40;;;;;;;9.81;100.00;100986.78;5074027;28;20053;-58
2022/12/24 09:43:23;;;;;;;27.20;6.28;;;;;;;9.80;100.00;100987.75;5073501;28;20049;-59
2022/12/24 09:46:06;;;;;;;33.75;7.63;;;;;;;9.82;100.00;100992.91;5075597;28;20047;-58
2022/12/24 09:48:39;;;;;;;29.27;5.80;;;;;;;9.86;100.00;101004.91;5075717;28;20045;-58
2022/12/24 09:51:10;;;;;;;34.65;7.50;;;;;;;9.82;100.00;101001.63;5073161;28;20052;-59
2022/12/24 09:53:43;;;;;;;32.35;6.82;;;;;;;9.87;100.00;101008.38;5073036;28;20075;-59
2022/12/24 09:56:15;;;;;;;31.95;7.50;;;;;;;9.90;100.00;101011.69;5075002;28;20050;-59
2022/12/24 09:58:47;;;;;;;31.90;6.32;;;;;;;9.89;100.00;101017.03;5075047;28;20044;-58
2022/12/24 10:01:18;;;;;;;27.67;6.93;;;;;;;9.90;100.00;101014.31;5075316;28;20487;-59
2022/12/24 10:03:47;;;;;;;27.92;6.65;;;;;;;9.92;100.00;101022.94;5072737;28;20082;-59
2022/12/24 10:06:19;;;;;;;26.25;6.45;;;;;;;9.94;100.00;101007.94;5072832;28;20041;-58
2022/12/24 10:09:10;;;;;;;36.47;7.40;;;;;;;9.94;100.00;101034.22;5075233;28;20056;-59
2022/12/24 10:11:43;;;;;;;;;;;;;;;9.96;100.00;101020.97;5075634;28;20503;-59
2022/12/24 10:14:35;;;;;;;37.00;7.63;;;;;;;10.06;100.00;101030.00;5074894;28;19926;-59
2022/12/24 10:17:23;;;;;;;29.35;6.15;;;;;;;10.05;100.00;101027.44;5073866;28;20445;-59
2022/12/24 10:20:04;;;;;;;33.45;6.50;;;;;;;10.09;100.00;101028.94;5071754;28;20048;-59
2022/12/24 10:22:44;;;;;;;26.92;6.78;;;;;;;10.12;100.00;101039.31;5074121;28;20048;-59
2022/12/24 10:25:18;;;;;;;22.42;6.28;;;;;;;10.07;100.00;101033.47;5073728;28;20057;-59
2022/12/24 10:27:46;;;;;;;29.83;6.25;;;;;;;10.11;100.00;101041.06;5071535;28;20127;-59
2022/12/24 10:30:17;;;;;;;24.52;6.57;;;;;;;10.15;100.00;101029.44;5073683;28;20086;-59
2022/12/24 10:32:48;;;;;;;27.40;5.93;;;;;;;10.18;100.00;101038.91;5074713;28;20385;-59
2022/12/24 10:35:23;;;;;;;24.50;6.78;;;;;;;10.19;100.00;101032.72;5073459;28;20056;-59
2022/12/24 10:37:52;;;;;;;30.73;7.47;;;;;;;10.26;100.00;101039.28;5071728;28;20131;-59
2022/12/24 10:40:30;;;;;;;24.90;6.97;;;;;;;10.38;100.00;101042.16;5073070;28;20074;-59
2022/12/24 10:42:58;;;;;;;30.75;6.50;;;;;;;10.41;100.00;101034.09;5074419;28;20058;-59
2022/12/24 10:45:36;;;;;;;28.77;6.65;;;;;;;10.41;100.00;101034.09;5074411;28;20076;-50
2022/12/24 10:48:14;;;;;;;28.02;6.80;;;;;;;10.45;100.00;101035.59;5073683;28;20048;-51
2022/12/24 10:50:54;;;;;;;35.30;8.18;;;;;;;10.51;100.00;101032.56;5073647;28;20060;-51
2022/12/24 10:53:28;;;;;;;28.98;6.50;;;;;;;10.58;100.00;101033.91;5073718;28;20098;-51
2022/12/24 10:56:07;;;;;;;27.90;6.07;;;;;;;10.62;100.00;101043.28;5073828;28;20525;-53
2022/12/24 10:58:36;;;;;;;23.95;5.28;;;;;;;10.65;100.00;101032.56;5074129;28;20044;-53
2022/12/24 11:01:05;;;;;;;28.08;5.97;;;;;;;10.67;100.00;101039.53;5071300;28;20041;-52
2022/12/24 11:03:36;;;;;;;27.67;5.30;;;;;;;10.70;100.00;101036.69;5069895;28;20099;-50
2022/12/24 11:06:08;;;;;;;30.77;6.13;;;;;;;10.70;100.00;101047.22;5072948;28;20044;-53
2022/12/24 11:08:38;;;;;;;29.27;5.45;;;;;;;10.67;100.00;101044.78;5073785;28;20041;-52
2022/12/24 11:11:09;;;;;;;29.42;5.95;;;;;;;10.61;100.00;101053.91;5073809;28;20102;-54
2022/12/24 11:13:40;;;;;;;27.27;5.72;;;;;;;10.55;100.00;101047.25;5073663;28;20046;-51
2022/12/24 11:16:17;;;;;;;28.65;5.55;;;;;;;10.62;100.00;101042.41;5073746;28;20431;-51
2022/12/24 11:18:49;;;;;;;28.73;5.72;;;;;;;10.66;100.00;101046.53;5073255;28;20483;-50
2022/12/24 11:21:21;;;;;;;24.65;5.28;;;;;;;10.65;100.00;101044.88;5070527;28;20066;-50
2022/12/24 11:23:52;;;;;;;26.70;5.00;;;;;;;10.66;100.00;101038.66;5071025;28;20109;-54
2022/12/24 11:26:30;;;;;;;25.48;6.93;;;;;;;10.68;100.00;101038.59;5073603;28;20454;-52
2022/12/24 11:29:15;;;;;;;27.92;5.88;;;;;;;10.64;100.00;101033.50;5073797;28;20476;-54
2022/12/24 11:31:44;;;;;;;28.80;6.30;;;;;;;10.65;100.00;101043.09;5073294;28;20049;-54
2022/12/24 11:34:27;;;;;;;26.15;6.10;;;;;;;10.68;100.00;101028.91;5073278;28;20181;-53
2022/12/24 11:37:08;;;;;;;23.08;5.13;;;;;;;10.68;100.00;101049.09;5071107;28;20048;-53
2022/12/24 11:39:46;;;;;;;23.55;5.78;;;;;;;10.70;100.00;101042.78;5069267;28;20060;-54